Manville, Rhode Island
Current Conditions -  °F | °C
As of 12:15 PM on Friday 28 Nov 2014 (Local Time) from KSFZ Reporting Station
Broken Clouds Broken Clouds  
Wind Chill: 24°   Ceiling: 3300
Heat Index: 34°   Visibility: 10mi
Dew Point: 18°   Wind: 14mph
Humidity: 52%   Direction: 340°NNW
Pressure: 30.03"   Gusts: 20mph
Location:  41.97°N, 71.47°W
Report Text: KSFZ 281715Z 34012G17KT 10SM BKN033 01/M08 A3003 RMK AO1
Loading
Personal Weather Stations






























Interactive Weather Map New forecast layout! Learn more

10-Day Weather Forecast

Advertisements
Track Severe Weather on mobile